Time;durP1;ratioP1;P1;durP2;ratioP2;P2;SDS_P1;SDS_P2;PMS_P1;PMS_P2;Temp;Humidity;BMP_temperature;BMP_pressure;BME280_temperature;BME280_humidity;BME280_pressure;Samples;Min_cycle;Max_cycle;Signal;HPM_P1;HPM_P2
2022/08/27 00:04:54;;;;;;;18.73;10.80;;;;;;;;;;10111933;28;20137;-71
2022/08/27 00:09:50;;;;;;;23.60;11.07;;;;;;;;;;10107601;28;20506;-71
2022/08/27 00:14:46;;;;;;;22.77;12.65;;;;;;;;;;10106333;28;20560;-71
2022/08/27 00:19:44;;;;;;;15.30;9.98;;;;;;;;;;10111570;28;20509;-71
2022/08/27 00:24:40;;;;;;;21.60;12.10;;;;;;;;;;10109116;28;20093;-70
2022/08/27 00:29:44;;;;;;;23.92;13.65;;;;;;;;;;10117976;28;20389;-71
2022/08/27 00:34:40;;;;;;;25.48;12.93;;;;;;;;;;10105975;28;20093;-71
2022/08/27 00:39:37;;;;;;;28.58;14.30;;;;;;;;;;10102667;28;20210;-70
2022/08/27 00:44:33;;;;;;;24.88;13.82;;;;;;;;;;10110889;28;20497;-71
2022/08/27 00:49:37;;;;;;;22.63;11.63;;;;;;;;;;10109477;28;20078;-71
2022/08/27 00:54:33;;;;;;;19.33;10.82;;;;;;;;;;10103609;28;20075;-71
2022/08/27 00:59:31;;;;;;;20.05;12.45;;;;;;;;;;10109249;28;20047;-71
2022/08/27 01:04:29;;;;;;;20.40;12.10;;;;;;;;;;10110360;28;20090;-71
2022/08/27 01:09:25;;;;;;;21.52;12.10;;;;;;;;;;10108885;28;20042;-71
2022/08/27 01:14:22;;;;;;;24.48;12.43;;;;;;;;;;10108297;28;20047;-70
2022/08/27 01:19:28;;;;;;;25.48;12.18;;;;;;;;;;10109274;28;20051;-71
2022/08/27 01:24:38;;;;;;;22.02;11.13;;;;;;;;;;10105864;28;20146;-71
2022/08/27 01:29:36;;;;;;;23.60;11.75;;;;;;;;;;10100824;28;20066;-71
2022/08/27 01:34:32;;;;;;;27.15;12.13;;;;;;;;;;10102482;28;20078;-71
2022/08/27 01:39:28;;;;;;;18.38;10.60;;;;;;;;;;10096999;28;20142;-71
2022/08/27 01:44:25;;;;;;;22.40;12.85;;;;;;;;;;10109520;28;20049;-71
2022/08/27 01:49:21;;;;;;;22.95;11.80;;;;;;;;;;10103736;28;20039;-71
2022/08/27 01:54:18;;;;;;;23.17;12.70;;;;;;;;;;10105824;28;20565;-71
2022/08/27 01:59:14;;;;;;;24.17;11.18;;;;;;;;;;10110465;28;20138;-71
2022/08/27 02:04:11;;;;;;;25.77;12.02;;;;;;;;;;10112119;28;20047;-71
2022/08/27 02:09:07;;;;;;;23.35;13.38;;;;;;;;;;10108004;28;20557;-71
2022/08/27 02:14:04;;;;;;;28.60;13.18;;;;;;;;;;10105223;28;21252;-71
2022/08/27 02:19:08;;;;;;;28.83;13.90;;;;;;;;;;10115791;28;20055;-71
2022/08/27 02:24:06;;;;;;;25.92;11.95;;;;;;;;;;10115297;28;20085;-71
2022/08/27 02:29:03;;;;;;;27.27;14.07;;;;;;;;;;10115184;28;20047;-71
2022/08/27 02:33:59;;;;;;;25.08;11.80;;;;;;;;;;10115691;28;20079;-71
2022/08/27 02:38:56;;;;;;;22.02;11.80;;;;;;;;;;10114616;28;20078;-71
2022/08/27 02:43:52;;;;;;;26.45;13.00;;;;;;;;;;10107482;28;20053;-71
2022/08/27 02:48:48;;;;;;;29.35;12.23;;;;;;;;;;10112991;28;20117;-71
2022/08/27 02:53:45;;;;;;;29.92;12.30;;;;;;;;;;10112753;28;20077;-71
2022/08/27 02:58:41;;;;;;;25.58;11.35;;;;;;;;;;10112489;28;20046;-70
2022/08/27 03:03:37;;;;;;;19.65;10.90;;;;;;;;;;10114602;28;20138;-71
2022/08/27 03:08:35;;;;;;;26.02;11.38;;;;;;;;;;10110830;28;20039;-71
2022/08/27 03:13:49;;;;;;;25.20;12.35;;;;;;;;;;10112284;28;20058;-71
2022/08/27 03:18:45;;;;;;;23.02;11.27;;;;;;;;;;10112983;28;20057;-71
2022/08/27 03:23:42;;;;;;;29.30;14.38;;;;;;;;;;10112501;28;20146;-71
2022/08/27 03:28:38;;;;;;;22.00;11.73;;;;;;;;;;10112831;28;20135;-71
2022/08/27 03:33:36;;;;;;;25.25;12.73;;;;;;;;;;10112415;28;20123;-71
2022/08/27 03:38:33;;;;;;;20.88;12.73;;;;;;;;;;10104809;28;20066;-71
2022/08/27 03:43:29;;;;;;;23.70;12.30;;;;;;;;;;10113015;28;20089;-71
2022/08/27 03:48:26;;;;;;;23.15;12.25;;;;;;;;;;10098491;28;20071;-71
2022/08/27 03:53:22;;;;;;;22.08;11.35;;;;;;;;;;10105843;28;20130;-71
2022/08/27 03:58:19;;;;;;;20.90;10.32;;;;;;;;;;10108112;28;20055;-72
2022/08/27 04:03:15;;;;;;;26.25;11.93;;;;;;;;;;10104961;28;20050;-68
2022/08/27 04:08:12;;;;;;;29.92;12.90;;;;;;;;;;10103794;28;20122;-69
2022/08/27 04:13:08;;;;;;;25.10;11.63;;;;;;;;;;10103635;28;20067;-69
2022/08/27 04:18:04;;;;;;;22.75;12.40;;;;;;;;;;10104277;28;20740;-69
2022/08/27 04:23:01;;;;;;;25.80;10.85;;;;;;;;;;10104403;28;20142;-69
2022/08/27 04:27:57;;;;;;;23.60;13.10;;;;;;;;;;10099982;28;20094;-69
2022/08/27 04:32:53;;;;;;;23.00;12.00;;;;;;;;;;10098495;28;20392;-69
2022/08/27 04:37:50;;;;;;;19.65;12.00;;;;;;;;;;10107030;28;20063;-70
2022/08/27 04:42:46;;;;;;;22.20;11.85;;;;;;;;;;10110654;28;20117;-69
2022/08/27 04:47:42;;;;;;;20.88;10.93;;;;;;;;;;10107963;28;20595;-69
2022/08/27 04:52:40;;;;;;;29.52;11.60;;;;;;;;;;10104944;28;20074;-70
2022/08/27 04:57:36;;;;;;;23.80;9.98;;;;;;;;;;10109524;28;20126;-69
2022/08/27 05:02:33;;;;;;;21.45;12.98;;;;;;;;;;10100015;28;20067;-70
2022/08/27 05:07:29;;;;;;;20.27;11.50;;;;;;;;;;10106046;28;20125;-70
2022/08/27 05:12:31;;;;;;;28.77;14.20;;;;;;;;;;10102384;28;20047;-70
2022/08/27 05:17:34;;;;;;;18.15;9.50;;;;;;;;;;10101085;28;20413;-69
2022/08/27 05:22:36;;;;;;;18.88;10.98;;;;;;;;;;10102178;28;20046;-69
2022/08/27 05:27:35;;;;;;;20.40;11.83;;;;;;;;;;10097681;28;20088;-69
2022/08/27 05:32:31;;;;;;;21.75;12.95;;;;;;;;;;10100450;28;20094;-69
2022/08/27 05:37:29;;;;;;;23.75;12.05;;;;;;;;;;10107727;28;20057;-69
2022/08/27 05:42:33;;;;;;;22.70;11.38;;;;;;;;;;10094574;28;20481;-69
2022/08/27 05:47:33;;;;;;;21.65;11.48;;;;;;;;;;10097103;28;20065;-69
2022/08/27 05:52:39;;;;;;;19.35;11.52;;;;;;;;;;10100191;28;20049;-69
2022/08/27 05:57:38;;;;;;;19.70;12.57;;;;;;;;;;10107984;28;20153;-70
2022/08/27 06:02:38;;;;;;;28.05;12.60;;;;;;;;;;10103556;28;20049;-69
2022/08/27 06:07:40;;;;;;;25.73;14.05;;;;;;;;;;10098148;28;20504;-69
2022/08/27 06:12:39;;;;;;;25.33;13.18;;;;;;;;;;10104809;28;20078;-69
2022/08/27 06:17:43;;;;;;;22.52;12.02;;;;;;;;;;10105581;28;20585;-70
2022/08/27 06:22:44;;;;;;;22.98;11.82;;;;;;;;;;10101077;28;20077;-69
2022/08/27 06:27:43;;;;;;;22.67;10.98;;;;;;;;;;10092660;28;20043;-70
2022/08/27 06:32:53;;;;;;;24.02;12.88;;;;;;;;;;10102637;28;20093;-69
2022/08/27 06:37:52;;;;;;;23.10;11.70;;;;;;;;;;10105085;28;20051;-70
2022/08/27 06:42:54;;;;;;;21.27;12.15;;;;;;;;;;10101847;28;20089;-69
2022/08/27 06:47:54;;;;;;;26.10;11.90;;;;;;;;;;10112805;28;20084;-69
2022/08/27 06:52:53;;;;;;;18.30;11.20;;;;;;;;;;10114200;28;20113;-69
2022/08/27 06:57:55;;;;;;;20.63;11.32;;;;;;;;;;10105408;28;20051;-70
2022/08/27 07:03:11;;;;;;;22.35;10.90;;;;;;;;;;10104228;28;20073;-69
2022/08/27 07:08:12;;;;;;;20.25;9.73;;;;;;;;;;10108537;28;20151;-69
2022/08/27 07:13:10;;;;;;;19.90;9.85;;;;;;;;;;10111159;28;20512;-69
2022/08/27 07:18:13;;;;;;;20.17;8.60;;;;;;;;;;10106684;28;20050;-70
2022/08/27 07:23:13;;;;;;;22.38;10.50;;;;;;;;;;10107798;28;20047;-70
2022/08/27 07:28:30;;;;;;;25.38;8.57;;;;;;;;;;10110536;28;20047;-70
2022/08/27 07:33:32;;;;;;;16.88;8.00;;;;;;;;;;10107495;28;20043;-70
2022/08/27 07:38:29;;;;;;;19.98;8.02;;;;;;;;;;10101468;28;20050;-69
2022/08/27 07:48:51;;;;;;;18.95;8.30;;;;;;;;;;10095909;28;20528;-69
2022/08/27 07:53:53;;;;;;;17.20;7.70;;;;;;;;;;10096417;28;20070;-69
2022/08/27 07:59:04;;;;;;;21.00;8.82;;;;;;;;;;10098327;28;20058;-69
2022/08/27 08:04:08;;;;;;;18.33;7.55;;;;;;;;;;10097850;28;21445;-69
2022/08/27 08:09:15;;;;;;;14.15;6.53;;;;;;;;;;10093820;28;20259;-69
2022/08/27 08:14:17;;;;;;;16.85;7.15;;;;;;;;;;10100770;28;20048;-69
2022/08/27 08:19:17;;;;;;;14.98;6.85;;;;;;;;;;10101040;28;20078;-69
2022/08/27 08:24:17;;;;;;;23.20;7.93;;;;;;;;;;10105057;28;20133;-68
2022/08/27 08:29:13;;;;;;;13.80;6.63;;;;;;;;;;10097143;28;20047;-69
2022/08/27 08:34:18;;;;;;;17.92;5.75;;;;;;;;;;10105564;28;20065;-68
2022/08/27 08:39:17;;;;;;;15.40;6.07;;;;;;;;;;10104001;28;20043;-69
2022/08/27 08:44:29;;;;;;;16.02;5.25;;;;;;;;;;10103969;28;20565;-69
2022/08/27 08:49:35;;;;;;;15.20;6.68;;;;;;;;;;10103537;28;20702;-69
2022/08/27 08:54:34;;;;;;;19.23;7.00;;;;;;;;;;10111584;28;20054;-69
2022/08/27 08:59:47;;;;;;;18.40;6.88;;;;;;;;;;10104090;28;20058;-68
2022/08/27 09:04:49;;;;;;;14.95;6.60;;;;;;;;;;10107421;28;20043;-69
2022/08/27 09:09:55;;;;;;;20.65;7.38;;;;;;;;;;10100405;28;20039;-69
2022/08/27 09:14:58;;;;;;;19.58;8.32;;;;;;;;;;10094694;28;20046;-69
2022/08/27 09:20:06;;;;;;;13.45;6.15;;;;;;;;;;10102352;28;20109;-69
2022/08/27 09:25:19;;;;;;;14.38;6.40;;;;;;;;;;10054707;28;20437;-69
2022/08/27 09:30:21;;;;;;;14.50;6.22;;;;;;;;;;10079558;28;20705;-68
2022/08/27 09:35:32;;;;;;;12.65;6.20;;;;;;;;;;10094286;28;20105;-69
2022/08/27 09:40:40;;;;;;;13.75;6.30;;;;;;;;;;10113533;28;20046;-68
2022/08/27 09:45:53;;;;;;;21.10;7.88;;;;;;;;;;10095022;28;20097;-69
2022/08/27 09:51:02;;;;;;;12.15;5.80;;;;;;;;;;10103552;28;20047;-69
2022/08/27 09:56:03;;;;;;;14.70;6.43;;;;;;;;;;10099104;28;20055;-69
2022/08/27 10:01:02;;;;;;;16.63;6.32;;;;;;;;;;10092213;28;20054;-69
2022/08/27 10:06:11;;;;;;;14.75;5.85;;;;;;;;;;10097485;28;20069;-69
2022/08/27 10:11:18;;;;;;;21.40;6.30;;;;;;;;;;10098186;28;20402;-69
2022/08/27 10:16:28;;;;;;;15.93;6.22;;;;;;;;;;10109158;28;20059;-69
2022/08/27 10:21:32;;;;;;;16.70;6.95;;;;;;;;;;10114332;28;20042;-69
2022/08/27 10:26:38;;;;;;;16.65;6.65;;;;;;;;;;10106174;28;20043;-69
2022/08/27 10:32:05;;;;;;;20.25;6.45;;;;;;;;;;10106332;28;20054;-69
2022/08/27 10:37:03;;;;;;;12.02;5.93;;;;;;;;;;10110665;28;20531;-69
2022/08/27 10:42:15;;;;;;;13.50;5.45;;;;;;;;;;10105508;28;20069;-69
2022/08/27 10:47:35;;;;;;;15.48;6.38;;;;;;;;;;10119421;28;20590;-69
2022/08/27 10:52:36;;;;;;;12.35;5.00;;;;;;;;;;10111913;28;20133;-69
2022/08/27 10:57:56;;;;;;;16.65;6.45;;;;;;;;;;10110119;28;20053;-69
2022/08/27 11:03:07;;;;;;;15.45;6.40;;;;;;;;;;10104434;28;20093;-70
2022/08/27 11:08:22;;;;;;;13.07;5.93;;;;;;;;;;10102182;28;20055;-69
2022/08/27 11:13:34;;;;;;;12.63;6.15;;;;;;;;;;10113113;28;20046;-69
2022/08/27 11:18:43;;;;;;;14.00;5.57;;;;;;;;;;10113399;28;20058;-69
2022/08/27 11:23:44;;;;;;;13.18;5.10;;;;;;;;;;10113141;28;20053;-69
2022/08/27 11:28:47;;;;;;;12.32;5.03;;;;;;;;;;10113749;28;20507;-69
2022/08/27 11:33:52;;;;;;;9.25;4.30;;;;;;;;;;10108928;28;20039;-69
2022/08/27 11:38:53;;;;;;;8.63;3.55;;;;;;;;;;10112056;28;20076;-69
2022/08/27 11:43:51;;;;;;;11.77;4.23;;;;;;;;;;10113750;28;20139;-69
2022/08/27 11:49:02;;;;;;;12.10;3.63;;;;;;;;;;10113312;28;20053;-69
2022/08/27 11:54:07;;;;;;;11.70;4.32;;;;;;;;;;10113838;28;20106;-69
2022/08/27 11:59:22;;;;;;;11.32;5.25;;;;;;;;;;10099187;28;20090;-69
2022/08/27 12:04:31;;;;;;;11.95;4.60;;;;;;;;;;10113241;28;20445;-69
2022/08/27 12:09:45;;;;;;;16.35;5.82;;;;;;;;;;10107478;28;20505;-69
2022/08/27 12:15:13;;;;;;;10.95;4.10;;;;;;;;;;10099607;28;20101;-69
2022/08/27 12:20:31;;;;;;;10.23;4.30;;;;;;;;;;10068871;28;20505;-69
2022/08/27 12:25:31;;;;;;;14.65;4.97;;;;;;;;;;10089286;28;20051;-69
2022/08/27 12:30:29;;;;;;;8.23;4.28;;;;;;;;;;10105739;28;20051;-69
2022/08/27 12:35:45;;;;;;;13.40;4.72;;;;;;;;;;10106095;28;20053;-69
2022/08/27 12:40:47;;;;;;;11.23;5.40;;;;;;;;;;10100878;28;20282;-69
2022/08/27 12:45:53;;;;;;;8.85;4.63;;;;;;;;;;10096630;28;20070;-69
2022/08/27 12:50:54;;;;;;;11.63;5.38;;;;;;;;;;10101263;28;20124;-69
2022/08/27 12:55:51;;;;;;;9.68;5.95;;;;;;;;;;10101214;28;20105;-69
2022/08/27 13:00:57;;;;;;;13.05;7.57;;;;;;;;;;10101838;28;20043;-69
2022/08/27 13:05:59;;;;;;;11.10;7.28;;;;;;;;;;10093397;28;20054;-69
2022/08/27 13:11:17;;;;;;;12.90;7.85;;;;;;;;;;10102499;28;20053;-69
2022/08/27 13:16:28;;;;;;;12.38;8.10;;;;;;;;;;10103811;28;20046;-70
2022/08/27 13:21:29;;;;;;;9.93;8.43;;;;;;;;;;10106138;28;20047;-70
2022/08/27 13:26:32;;;;;;;9.88;8.68;;;;;;;;;;10108583;28;20047;-69
2022/08/27 13:31:30;;;;;;;11.77;8.02;;;;;;;;;;10103519;28;20050;-69
2022/08/27 13:36:49;;;;;;;11.93;8.90;;;;;;;;;;10106282;28;20078;-70
2022/08/27 13:41:51;;;;;;;10.73;7.90;;;;;;;;;;10105396;28;20604;-70
2022/08/27 13:46:58;;;;;;;12.00;8.98;;;;;;;;;;10108632;28;20146;-69
2022/08/27 13:52:04;;;;;;;12.50;8.43;;;;;;;;;;10102098;28;20297;-70
2022/08/27 13:57:08;;;;;;;10.40;8.25;;;;;;;;;;10118058;28;20061;-70
2022/08/27 14:02:14;;;;;;;13.80;8.98;;;;;;;;;;10116423;28;20121;-70
2022/08/27 14:07:22;;;;;;;10.70;8.02;;;;;;;;;;10112705;28;20055;-70
2022/08/27 14:12:27;;;;;;;8.90;8.05;;;;;;;;;;10118787;28;20046;-70
2022/08/27 14:17:37;;;;;;;10.88;8.73;;;;;;;;;;10120359;28;20782;-69
2022/08/27 14:22:36;;;;;;;9.15;7.53;;;;;;;;;;10123776;28;20050;-70
2022/08/27 14:27:38;;;;;;;8.65;7.78;;;;;;;;;;10115326;28;20078;-70
2022/08/27 14:32:52;;;;;;;9.88;7.50;;;;;;;;;;10116234;28;20521;-70
2022/08/27 14:37:55;;;;;;;10.07;7.68;;;;;;;;;;10120966;28;20588;-71
2022/08/27 14:42:53;;;;;;;8.48;7.68;;;;;;;;;;10119338;28;20520;-70
2022/08/27 14:47:53;;;;;;;9.43;8.43;;;;;;;;;;10106897;28;20138;-70
2022/08/27 14:52:57;;;;;;;11.95;8.48;;;;;;;;;;10117288;28;20410;-70
2022/08/27 14:58:01;;;;;;;12.45;7.82;;;;;;;;;;10121380;28;20051;-70
2022/08/27 15:03:03;;;;;;;8.07;7.20;;;;;;;;;;10114359;28;20113;-69
2022/08/27 15:08:05;;;;;;;12.32;7.90;;;;;;;;;;10111467;28;20055;-70
2022/08/27 15:13:10;;;;;;;8.52;7.18;;;;;;;;;;10114524;28;20051;-69
2022/08/27 15:18:17;;;;;;;11.38;6.28;;;;;;;;;;10109002;28;20039;-70
2022/08/27 15:23:16;;;;;;;8.05;7.25;;;;;;;;;;10108601;28;20043;-69
2022/08/27 15:28:20;;;;;;;10.55;8.23;;;;;;;;;;10101698;28;20077;-69
2022/08/27 15:33:20;;;;;;;9.88;7.20;;;;;;;;;;10106762;28;20460;-70
2022/08/27 15:38:34;;;;;;;12.82;7.85;;;;;;;;;;10107313;28;20050;-69
2022/08/27 15:43:36;;;;;;;11.50;7.45;;;;;;;;;;10097064;28;20102;-70
2022/08/27 15:48:44;;;;;;;9.85;7.30;;;;;;;;;;10091775;28;20053;-69
2022/08/27 15:53:49;;;;;;;10.43;7.50;;;;;;;;;;10092095;28;20112;-70
2022/08/27 15:58:46;;;;;;;10.07;6.88;;;;;;;;;;10086307;28;20043;-70
2022/08/27 16:03:45;;;;;;;10.52;6.90;;;;;;;;;;10086981;28;20543;-70
2022/08/27 16:08:41;;;;;;;12.43;8.25;;;;;;;;;;10083361;28;20146;-70
2022/08/27 16:13:41;;;;;;;10.73;8.05;;;;;;;;;;10084775;28;20474;-70
2022/08/27 16:18:46;;;;;;;12.18;8.23;;;;;;;;;;10102244;28;20129;-70
2022/08/27 16:23:49;;;;;;;11.00;6.90;;;;;;;;;;10097800;28;20469;-70
2022/08/27 16:34:38;;;;;;;11.70;7.72;;;;;;;;;;10100440;28;20093;-69
2022/08/27 16:39:39;;;;;;;10.77;8.63;;;;;;;;;;10098552;28;20047;-70
2022/08/27 16:44:39;;;;;;;14.05;7.75;;;;;;;;;;10103974;28;20055;-69
2022/08/27 16:54:58;;;;;;;10.35;7.65;;;;;;;;;;10102396;28;20066;-70
2022/08/27 17:00:14;;;;;;;11.00;7.78;;;;;;;;;;10085617;28;20064;-70
2022/08/27 17:05:10;;;;;;;10.02;7.35;;;;;;;;;;10094672;28;20051;-70
2022/08/27 17:10:49;;;;;;;10.30;7.82;;;;;;;;;;10094735;28;20053;-70
2022/08/27 17:15:47;;;;;;;12.10;8.45;;;;;;;;;;10091623;28;20069;-69
2022/08/27 17:20:51;;;;;;;;;;;;;;;;;;10090376;28;20101;-70
2022/08/27 17:25:52;;;;;;;15.00;8.13;;;;;;;;;;10102082;28;19988;-70
2022/08/27 17:30:52;;;;;;;13.93;8.52;;;;;;;;;;10099632;28;20059;-70
2022/08/27 17:35:55;;;;;;;17.80;9.07;;;;;;;;;;10095932;28;20039;-69
2022/08/27 17:40:54;;;;;;;12.90;7.93;;;;;;;;;;10096031;28;20138;-70
2022/08/27 17:45:56;;;;;;;11.75;7.78;;;;;;;;;;10102912;28;20043;-70
2022/08/27 17:51:01;;;;;;;15.95;7.97;;;;;;;;;;10092887;28;20073;-70
2022/08/27 17:56:00;;;;;;;14.60;7.50;;;;;;;;;;10101742;28;20059;-70
2022/08/27 18:00:59;;;;;;;12.00;7.15;;;;;;;;;;10097465;28;20082;-70
2022/08/27 18:05:57;;;;;;;18.73;7.60;;;;;;;;;;10113602;28;20106;-70
2022/08/27 18:11:09;;;;;;;18.13;7.35;;;;;;;;;;10097696;28;20078;-69
2022/08/27 18:16:12;;;;;;;7.97;6.50;;;;;;;;;;10093850;28;20061;-69
2022/08/27 18:21:12;;;;;;;10.60;6.10;;;;;;;;;;10097329;28;20283;-69
2022/08/27 18:26:23;;;;;;;12.43;6.63;;;;;;;;;;10100278;28;20042;-70
2022/08/27 18:31:26;;;;;;;11.05;6.75;;;;;;;;;;10105057;28;20134;-69
2022/08/27 18:36:26;;;;;;;18.15;7.22;;;;;;;;;;10106911;28;20713;-69
2022/08/27 18:41:31;;;;;;;14.73;7.03;;;;;;;;;;10106365;28;20074;-69
2022/08/27 18:46:33;;;;;;;15.95;7.28;;;;;;;;;;10115872;28;20170;-69
2022/08/27 18:51:35;;;;;;;11.57;5.25;;;;;;;;;;10113644;28;20067;-69
2022/08/27 18:56:34;;;;;;;14.68;5.65;;;;;;;;;;10110415;28;20137;-69
2022/08/27 19:01:38;;;;;;;11.57;5.70;;;;;;;;;;10113252;28;20046;-69
2022/08/27 19:06:44;;;;;;;11.52;5.05;;;;;;;;;;10107426;28;20059;-69
2022/08/27 19:11:44;;;;;;;12.48;5.47;;;;;;;;;;10110745;28;20057;-69
2022/08/27 19:16:43;;;;;;;11.40;4.30;;;;;;;;;;10107604;28;20078;-69
2022/08/27 19:21:40;;;;;;;14.95;5.70;;;;;;;;;;10106470;28;20370;-69
2022/08/27 19:26:47;;;;;;;18.42;6.55;;;;;;;;;;10110210;28;20047;-70
2022/08/27 19:31:46;;;;;;;11.80;5.28;;;;;;;;;;10104207;28;20585;-69
2022/08/27 19:36:45;;;;;;;16.48;6.43;;;;;;;;;;10101922;28;20047;-69
2022/08/27 19:41:44;;;;;;;13.20;5.80;;;;;;;;;;10107365;28;20459;-69
2022/08/27 19:46:44;;;;;;;14.40;5.85;;;;;;;;;;10110140;28;20058;-71
2022/08/27 19:51:43;;;;;;;9.35;5.07;;;;;;;;;;10104874;28;20062;-70
2022/08/27 19:56:42;;;;;;;14.38;5.15;;;;;;;;;;10103484;28;20093;-71
2022/08/27 20:01:39;;;;;;;13.93;5.30;;;;;;;;;;10114890;28;20138;-71
2022/08/27 20:06:36;;;;;;;12.25;5.07;;;;;;;;;;10114406;28;20038;-71
2022/08/27 20:11:37;;;;;;;11.95;4.57;;;;;;;;;;10106356;28;20050;-71
2022/08/27 20:16:40;;;;;;;8.90;4.88;;;;;;;;;;10108003;28;20579;-71
2022/08/27 20:21:38;;;;;;;15.73;5.38;;;;;;;;;;10106346;28;20101;-71
2022/08/27 20:26:43;;;;;;;14.73;5.85;;;;;;;;;;10109420;28;20047;-71
2022/08/27 20:31:40;;;;;;;11.27;5.10;;;;;;;;;;10106079;28;20050;-71
2022/08/27 20:36:46;;;;;;;14.15;5.88;;;;;;;;;;10107233;28;20055;-71
2022/08/27 20:41:58;;;;;;;14.70;4.85;;;;;;;;;;10104993;28;20058;-71
2022/08/27 20:46:58;;;;;;;16.90;5.88;;;;;;;;;;10107168;28;20043;-70
2022/08/27 20:51:57;;;;;;;14.80;5.70;;;;;;;;;;10107489;28;20134;-71
2022/08/27 20:57:02;;;;;;;14.90;5.72;;;;;;;;;;10107000;28;20066;-69
2022/08/27 21:02:04;;;;;;;15.73;6.18;;;;;;;;;;10107167;28;20050;-69
2022/08/27 21:07:04;;;;;;;14.15;5.40;;;;;;;;;;10109312;28;20054;-68
2022/08/27 21:12:10;;;;;;;15.07;4.72;;;;;;;;;;10110011;28;20050;-69
2022/08/27 21:17:18;;;;;;;12.40;4.72;;;;;;;;;;10096366;28;20125;-69
2022/08/27 21:22:14;;;;;;;13.80;4.97;;;;;;;;;;10102846;28;20053;-69
2022/08/27 21:27:15;;;;;;;12.15;4.82;;;;;;;;;;10095867;28;20078;-69
2022/08/27 21:32:15;;;;;;;12.57;5.90;;;;;;;;;;10098194;28;20042;-69
2022/08/27 21:37:18;;;;;;;14.32;5.80;;;;;;;;;;10103139;28;20145;-69
2022/08/27 21:42:22;;;;;;;12.13;5.47;;;;;;;;;;10102300;28;20061;-69
2022/08/27 21:47:19;;;;;;;13.30;5.63;;;;;;;;;;10101618;28;20101;-69
2022/08/27 21:52:23;;;;;;;15.32;6.00;;;;;;;;;;10097248;28;20051;-68
2022/08/27 21:57:24;;;;;;;18.23;5.75;;;;;;;;;;10106610;28;20051;-68
2022/08/27 22:02:41;;;;;;;14.77;5.30;;;;;;;;;;10097334;28;20051;-69
2022/08/27 22:07:41;;;;;;;15.02;5.35;;;;;;;;;;10098267;28;20057;-69
2022/08/27 22:12:51;;;;;;;12.63;5.03;;;;;;;;;;10118695;28;20247;-69
2022/08/27 22:17:57;;;;;;;14.55;4.85;;;;;;;;;;10114394;28;20054;-68
2022/08/27 22:23:02;;;;;;;15.00;4.60;;;;;;;;;;10108393;28;20070;-69
2022/08/27 22:28:07;;;;;;;14.63;4.32;;;;;;;;;;10110845;28;20097;-69
2022/08/27 22:33:04;;;;;;;14.70;3.95;;;;;;;;;;10115386;28;20620;-69
2022/08/27 22:38:05;;;;;;;12.32;4.22;;;;;;;;;;10116571;28;20417;-69
2022/08/27 22:43:19;;;;;;;14.35;4.30;;;;;;;;;;10112589;28;20079;-69
2022/08/27 22:48:16;;;;;;;17.05;5.30;;;;;;;;;;10108729;28;20046;-69
2022/08/27 22:53:24;;;;;;;15.60;4.82;;;;;;;;;;10112810;28;20532;-69
2022/08/27 22:58:29;;;;;;;18.02;5.35;;;;;;;;;;10113965;28;20421;-69
2022/08/27 23:03:28;;;;;;;;;;;;;;;;;;10116430;28;20042;-69
2022/08/27 23:08:30;;;;;;;12.02;3.92;;;;;;;;;;10113982;28;20000;-69
2022/08/27 23:13:29;;;;;;;13.20;4.28;;;;;;;;;;10115853;28;20057;-69
2022/08/27 23:18:26;;;;;;;14.57;4.40;;;;;;;;;;10114415;28;20057;-69
2022/08/27 23:23:23;;;;;;;16.27;3.53;;;;;;;;;;10113654;28;20050;-69
2022/08/27 23:28:32;;;;;;;14.75;4.28;;;;;;;;;;10108553;28;20429;-69
2022/08/27 23:33:31;;;;;;;12.02;3.80;;;;;;;;;;10111901;28;20051;-69
2022/08/27 23:38:28;;;;;;;18.45;4.45;;;;;;;;;;10114520;28;20070;-69
2022/08/27 23:43:27;;;;;;;13.95;3.80;;;;;;;;;;10114311;28;20054;-69
2022/08/27 23:48:24;;;;;;;9.18;3.58;;;;;;;;;;10106531;28;20070;-69
2022/08/27 23:53:20;;;;;;;9.65;3.22;;;;;;;;;;10113666;28;20137;-69
2022/08/27 23:58:16;;;;;;;11.98;3.63;;;;;;;;;;10114807;28;20101;-69
